Historique des mesures à Cassis (13260), France
Quotidien Résumé Décembre 26, 2017 Unités:  Métrique    US   Métrique/US
« Précédent (Jour)
Suivant (Jour) »
Quotidien Hebdomadaire Mensuel Annuel Période au choix
  Maximum: Minimum: Moyenne:
Température: TemperatureC °C 9.3 °C 11.1 °C
Point de rosée: DewpointC °C 6.6 °C 9 °C
Humidité: Humidity % 81 % 83 %
Vitesse du vent: 0 km/h 0 km/h 0.5 km/h
Rafales: 0 km/h - -
Vent:- - South
Pression: PressurehPa hPa 1003.9 hPa -
Précipitations: 3.6 mm    
Historical Graphs
 
 
Mesures pour : Décembre 26, 2017
Heure Temperature Point de rosée Pression Vent Vitesse du vent Rafales Humidité Pluie (par heure) Conditions
TemperatureC °C DewpointC °C PressurehPa hPa Calm     Humidity % HourlyPrecipMM mm SoftwareType W/m2
00:10 11.6 °C 9.7 °C 1019.2 hPa Calm     88 % 0.0 mm open2300-1.11 W/m2
01:10 11.4 °C 9.4 °C 1017.8 hPa Calm     88 % 0.0 mm open2300-1.11 W/m2
02:10 11.7 °C 9.8 °C 1017.2 hPa Calm     88 % 0.0 mm open2300-1.11 W/m2
03:10 11.8 °C 9.9 °C 1016.8 hPa Calm   16.9 km/h 88 % 0.0 mm open2300-1.11 W/m2
04:11 11.8 °C 9.9 °C 1015.8 hPa Calm     88 % 0.0 mm open2300-1.11 W/m2
05:10 11.9 °C 9.9 °C 1014.8 hPa Calm     88 % 0.0 mm open2300-1.11 W/m2
06:10 12.1 °C 10.2 °C 1014.1 hPa Calm     88 % 0.0 mm open2300-1.11 W/m2
07:10 12.2 °C 10.3 °C 1014.1 hPa South 11.6 km/h 11.6 km/h 88 % 0.0 mm open2300-1.11 W/m2
08:10 12.2 °C 10.4 °C 1013.4 hPa Calm     89 % 0.5 mm open2300-1.11 W/m2
09:10 11.9 °C 10.1 °C 1012.8 hPa Calm     89 % 0.0 mm open2300-1.11 W/m2
10:11 11.6 °C 9.8 °C 1012.8 hPa Calm     89 % 1.5 mm open2300-1.11 W/m2
11:10 11.1 °C 9.3 °C 1012.4 hPa Calm     89 % 0.5 mm open2300-1.11 W/m2
12:10 11.6 °C 9.8 °C 1011.7 hPa Calm     89 % 0.0 mm open2300-1.11 W/m2
13:11 12.3 °C 10.5 °C 1010.4 hPa Calm     89 % 0.0 mm open2300-1.11 W/m2
14:10 13.3 °C 11.3 °C 1009.7 hPa Calm     88 % 0.0 mm open2300-1.11 W/m2
15:10 13.0 °C 10.7 °C 1008.4 hPa Calm     86 % 0.0 mm open2300-1.11 W/m2
16:10 12.4 °C 9.9 °C 1008.4 hPa Calm     85 % 0.0 mm open2300-1.11 W/m2
17:10 11.8 °C 9.5 °C 1008.0 hPa Calm     86 % 0.0 mm open2300-1.11 W/m2
18:10 11.2 °C 8.8 °C 1007.7 hPa Calm     85 % 0.0 mm open2300-1.11 W/m2
19:10 10.8 °C 8.0 °C 1007.3 hPa Calm     83 % 0.0 mm open2300-1.11 W/m2
20:10 10.5 °C 7.4 °C 1006.7 hPa Calm     81 % 0.0 mm open2300-1.11 W/m2
21:10 9.9 °C 6.8 °C 1005.3 hPa Calm     81 % 0.0 mm open2300-1.11 W/m2
22:10 9.3 °C 6.6 °C 1005.0 hPa Calm     83 % 0.0 mm open2300-1.11 W/m2
23:10 9.4 °C 6.8 °C 1003.9 hPa Calm     84 % 0.0 mm open2300-1.11 W/m2
Observations météo à CASSIS
WU-History script by Weather Underground - 1 mb